Time;durP1;ratioP1;P1;durP2;ratioP2;P2;SDS_P1;SDS_P2;PMS_P1;PMS_P2;Temp;Humidity;BMP_temperature;BMP_pressure;BME280_temperature;BME280_humidity;BME280_pressure;Samples;Min_cycle;Max_cycle;Signal;HPM_P1;HPM_P2
2021/05/28 00:00:05;;;;;;;6.82;1.83;;;;;;;10.27;90.57;101484.50;5008272;28;20021;-85
2021/05/28 00:02:32;;;;;;;11.05;2.05;;;;;;;10.32;90.69;101484.88;4994210;28;20481;-83
2021/05/28 00:04:57;;;;;;;6.13;1.90;;;;;;;10.32;90.82;101492.94;5009680;28;20477;-84
2021/05/28 00:07:22;;;;;;;8.45;1.98;;;;;;;10.25;90.75;101480.25;5001265;28;20104;-84
2021/05/28 00:09:48;;;;;;;11.10;2.03;;;;;;;10.22;90.86;101472.50;5009252;28;20128;-84
2021/05/28 00:12:13;;;;;;;10.32;2.92;;;;;;;10.30;91.07;101491.41;5001918;28;20097;-85
2021/05/28 00:14:39;;;;;;;11.90;2.50;;;;;;;10.27;90.97;101480.94;5006380;28;20022;-84
2021/05/28 00:17:05;;;;;;;13.15;2.28;;;;;;;10.31;90.72;101490.41;4995175;28;20029;-85
2021/05/28 00:19:30;;;;;;;12.27;3.22;;;;;;;10.28;90.95;101488.88;5008759;28;20026;-84
2021/05/28 00:21:55;;;;;;;12.73;2.03;;;;;;;10.28;90.94;101496.09;5006830;28;20023;-83
2021/05/28 00:24:21;;;;;;;10.45;2.08;;;;;;;10.17;90.95;101472.97;5017588;28;20025;-84
2021/05/28 00:26:47;;;;;;;8.95;2.47;;;;;;;10.30;90.77;101504.84;5007795;28;20022;-84
2021/05/28 00:29:12;;;;;;;8.20;2.00;;;;;;;10.23;90.49;101493.00;5009807;28;20030;-84
2021/05/28 00:31:38;;;;;;;11.18;2.13;;;;;;;10.22;90.65;101497.53;5001675;28;20029;-85
2021/05/28 00:34:03;;;;;;;10.98;2.67;;;;;;;9.98;90.87;101457.03;5031008;28;20699;-84
2021/05/28 00:36:29;;;;;;;7.65;2.08;;;;;;;10.23;91.03;101501.91;5008532;28;20072;-84
2021/05/28 00:38:54;;;;;;;10.63;1.80;;;;;;;10.20;90.95;101496.84;5001315;28;20025;-84
2021/05/28 00:41:19;;;;;;;10.25;2.65;;;;;;;10.08;91.32;101468.50;5010031;28;20374;-85
2021/05/28 00:43:45;;;;;;;4.75;1.77;;;;;;;10.11;91.35;101478.97;5025284;28;20734;-83
2021/05/28 00:46:11;;;;;;;11.18;2.65;;;;;;;10.21;90.94;101492.28;4994587;28;20022;-84
2021/05/28 00:48:36;;;;;;;12.02;2.15;;;;;;;10.27;91.01;101505.13;5008217;28;20084;-83
2021/05/28 00:51:02;;;;;;;9.13;2.08;;;;;;;10.23;90.95;101493.00;4998848;28;20029;-84
2021/05/28 00:53:28;;;;;;;11.35;2.28;;;;;;;10.21;90.98;101487.75;5008676;28;20029;-84
2021/05/28 00:55:56;;;;;;;10.95;1.95;;;;;;;10.22;91.19;101489.47;5008516;28;20029;-85
2021/05/28 00:58:21;;;;;;;7.05;2.05;;;;;;;10.22;90.84;101494.00;5007236;28;20081;-84
2021/05/28 01:00:48;;;;;;;14.52;2.53;;;;;;;10.24;90.91;101506.28;5005969;28;20038;-85
2021/05/28 01:03:14;;;;;;;11.75;2.30;;;;;;;10.23;91.25;101498.38;5004705;28;20033;-84
2021/05/28 01:05:40;;;;;;;7.00;1.70;;;;;;;10.16;91.18;101497.28;5008367;28;20018;-84
2021/05/28 01:08:05;;;;;;;9.60;2.15;;;;;;;10.11;91.52;101485.19;5009754;28;20076;-84
2021/05/28 01:10:31;;;;;;;10.35;2.05;;;;;;;10.11;91.36;101493.25;5008933;28;20060;-84
2021/05/28 01:13:09;;;;;;;7.82;2.05;;;;;;;10.08;91.43;101490.88;5009499;28;20439;-83
2021/05/28 01:15:35;;;;;;;11.07;2.35;;;;;;;9.91;91.62;101464.84;5009165;28;20084;-84
2021/05/28 01:18:01;;;;;;;16.95;3.00;;;;;;;10.10;91.88;101502.28;5009284;28;20500;-83
2021/05/28 01:20:27;;;;;;;8.38;1.83;;;;;;;10.08;92.04;101498.06;5011252;28;20030;-84
2021/05/28 01:22:52;;;;;;;10.45;2.58;;;;;;;10.05;91.88;101490.31;5009017;28;20025;-84
2021/05/28 01:25:19;;;;;;;8.15;1.85;;;;;;;10.11;91.92;101505.84;5009614;28;20068;-83
2021/05/28 01:27:45;;;;;;;10.18;2.22;;;;;;;10.09;92.11;101497.91;5008157;28;20483;-85
2021/05/28 01:30:11;;;;;;;7.78;1.90;;;;;;;10.15;91.83;101506.38;5008474;28;20057;-83
2021/05/28 01:32:36;;;;;;;13.25;2.42;;;;;;;10.12;91.97;101508.34;5012148;28;20034;-84
2021/05/28 01:35:02;;;;;;;9.73;2.40;;;;;;;10.13;92.05;101504.69;5010688;28;20091;-84
2021/05/28 01:37:28;;;;;;;11.20;2.65;;;;;;;10.07;91.60;101496.38;5006615;28;20037;-84
2021/05/28 01:39:53;;;;;;;15.77;2.78;;;;;;;10.15;91.68;101515.25;5006965;28;20032;-84
2021/05/28 01:42:19;;;;;;;12.55;2.13;;;;;;;10.18;91.90;101517.63;5008639;28;20029;-84
2021/05/28 01:44:46;;;;;;;11.77;2.08;;;;;;;10.11;91.72;101509.38;4993391;28;20385;-85
2021/05/28 01:47:12;;;;;;;9.27;2.45;;;;;;;10.14;92.09;101510.91;4995571;28;20018;-84
2021/05/28 07:53:41;;;;;;;8.20;2.08;;;;;;;12.07;81.80;101584.19;5497051;23;20050;-85
2021/05/28 07:56:07;;;;;;;5.63;2.20;;;;;;;12.01;81.56;101583.00;4961950;28;20066;-84
2021/05/28 07:58:33;;;;;;;7.28;2.72;;;;;;;12.03;81.14;101591.72;4946156;28;20497;-83
2021/05/28 08:00:59;;;;;;;10.05;2.75;;;;;;;11.97;81.77;101587.00;4961958;28;20029;-85
2021/05/28 08:03:28;;;;;;;8.77;1.90;;;;;;;11.89;81.55;101584.28;4958231;28;20045;-85
2021/05/28 11:43:18;;;;;;;4.03;1.90;;;;;;;16.73;63.68;101538.28;5187292;23;20197;-78
2021/05/28 11:45:54;;;;;;;8.52;2.35;;;;;;;16.64;64.04;101543.84;4943626;28;20062;-77
2021/05/28 11:48:23;;;;;;;3.58;2.20;;;;;;;16.67;64.12;101540.75;4944163;28;20158;-77
2021/05/28 11:50:54;;;;;;;3.35;1.80;;;;;;;16.65;63.45;101542.00;4970799;28;20130;-78
2021/05/28 11:53:20;;;;;;;5.18;1.70;;;;;;;16.47;63.46;101545.19;4938243;28;20173;-78
2021/05/28 11:55:53;;;;;;;5.65;1.63;;;;;;;16.34;63.88;101550.47;4966194;28;20106;-78
2021/05/28 11:58:24;;;;;;;7.15;1.98;;;;;;;16.25;64.75;101547.91;4949560;28;20043;-77
2021/05/28 12:00:53;;;;;;;6.50;1.98;;;;;;;16.16;64.56;101543.63;4967773;28;20026;-78
2021/05/28 12:03:19;;;;;;;4.47;1.70;;;;;;;16.04;65.24;101546.03;4958298;28;20110;-78
2021/05/28 12:05:47;;;;;;;6.78;2.00;;;;;;;16.05;65.64;101549.56;4969735;28;20097;-78
2021/05/28 12:08:27;;;;;;;5.53;1.40;;;;;;;16.00;65.27;101549.31;4960563;28;20081;-78
2021/05/28 12:10:53;;;;;;;13.32;3.60;;;;;;;15.81;65.46;101554.31;4967310;28;20019;-80
2021/05/28 12:13:31;;;;;;;6.13;2.08;;;;;;;15.69;66.74;101534.16;4976182;28;20717;-81
2021/05/28 12:15:58;;;;;;;8.98;3.67;;;;;;;15.63;66.25;101542.19;4971597;28;20057;-79
2021/05/28 12:18:27;;;;;;;6.03;2.05;;;;;;;15.59;66.85;101545.28;4983353;28;20039;-82
2021/05/28 12:28:45;;;;;;;5.82;2.28;;;;;;;15.50;66.73;101550.97;4954377;28;20048;-77
2021/05/28 12:31:17;;;;;;;7.35;3.20;;;;;;;15.61;66.87;101551.34;5151554;23;20040;-82
2021/05/28 12:33:45;;;;;;;11.05;5.00;;;;;;;15.59;67.04;101553.41;4949684;29;20053;-76
2021/05/28 12:36:13;;;;;;;7.00;5.38;;;;;;;15.52;66.58;101549.75;4933029;28;20105;-79
2021/05/28 12:38:43;;;;;;;9.93;4.20;;;;;;;15.59;66.36;101549.84;4940994;29;20479;-75
2021/05/28 12:41:11;;;;;;;7.13;2.78;;;;;;;15.70;66.69;101562.13;4950465;28;20026;-75
2021/05/28 12:43:42;;;;;;;8.13;2.70;;;;;;;15.75;66.56;101562.38;4926331;29;20065;-77
2021/05/28 12:46:16;;;;;;;4.38;1.90;;;;;;;15.68;66.39;101566.84;4931066;29;20050;-77
2021/05/28 12:48:49;;;;;;;5.45;2.10;;;;;;;15.52;67.02;101562.47;4936084;29;20076;-77
2021/05/28 12:51:17;;;;;;;10.45;2.35;;;;;;;15.29;68.24;101559.88;4950480;28;20093;-86
2021/05/28 12:53:44;;;;;;;9.48;2.10;;;;;;;15.16;69.57;101558.69;4934691;29;20426;-85
2021/05/28 12:56:18;;;;;;;8.05;2.85;;;;;;;15.03;70.14;101569.31;4940760;29;20034;-84
2021/05/28 12:58:44;;;;;;;7.53;2.03;;;;;;;14.88;70.71;101561.16;4939678;29;20019;-85
2021/05/28 13:32:34;;;;;;;4.70;2.60;;;;;;;14.51;77.31;101565.53;6002694;23;20024;-85
2021/05/28 13:55:06;;;;;;;9.77;6.07;;;;;;;15.02;75.44;101540.53;5815758;23;20059;-83
2021/05/28 13:57:32;;;;;;;5.97;2.88;;;;;;;15.12;75.59;101553.81;4955766;28;20442;-77
2021/05/28 13:59:57;;;;;;;5.35;2.30;;;;;;;15.17;75.17;101556.81;4931787;29;20031;-76
2021/05/28 14:02:23;;;;;;;7.63;2.00;;;;;;;15.12;75.31;101557.34;4934673;29;20039;-83
2021/05/28 14:04:48;;;;;;;7.45;2.22;;;;;;;15.06;75.59;101549.16;4928094;29;20057;-82
2021/05/28 14:07:15;;;;;;;5.97;2.20;;;;;;;15.14;75.42;101568.84;4932800;29;20079;-82
2021/05/28 14:09:40;;;;;;;4.90;1.80;;;;;;;15.09;75.85;101559.59;4936218;29;20379;-82
2021/05/28 14:12:06;;;;;;;7.75;2.22;;;;;;;15.12;75.72;101551.94;4939147;29;20478;-82
2021/05/28 14:14:32;;;;;;;5.63;2.05;;;;;;;15.15;75.60;101548.84;4936628;29;20035;-85
2021/05/28 14:16:58;;;;;;;6.72;1.85;;;;;;;15.32;74.94;101549.50;4959182;29;20047;-83
2021/05/28 14:19:23;;;;;;;5.55;2.17;;;;;;;15.29;74.53;101541.75;4949603;29;20034;-84
2021/05/28 16:13:02;;;;;;;1.63;0.90;;;;;;;18.35;57.71;101488.75;5122423;23;20047;-83
2021/05/28 16:15:28;;;;;;;2.72;1.00;;;;;;;17.99;59.32;101499.00;4939512;28;20039;-84
2021/05/28 19:58:24;;;;;;;8.40;3.08;;;;;;;14.25;75.43;101552.38;6149930;23;20101;31
2021/05/28 20:35:13;;;;;;;13.68;7.10;;;;;;;13.96;77.24;101568.47;5381775;23;20102;-82
2021/05/28 20:37:39;;;;;;;10.93;7.13;;;;;;;13.99;76.74;101587.03;4931421;28;20031;-83
2021/05/28 20:40:08;;;;;;;13.98;7.47;;;;;;;13.95;76.95;101580.31;4924896;28;20059;-83
